Iris Victoria — V7TS8 — position and weather

sailwx.info

Track history (hours):
 
Tides and Currents Weather Stations Pressure Air Temp Water Temp Dewpoint Dewpoint Depression Visibility Wind Speed Wind Dir Waves Ship Positions

Iris Victoria

Last reported at 2015-Feb-15 13:21 UTC. Time now 2015-Feb-28 20:48 UTC.
Position N 33°53' E 134°58'.
Warning: this ship's position is 13 days out of date.

Length 228 m; draft 7.9 m.

Type: Ship (hazmat cat C). MMSI: 538003876.

Date/timePositionNaut miles runAvg speedWind from/ knotsBaromVisibWave heightAir tempDewpointWater temp
2015-Feb-15 13:21N 33°53' E 134°58'1214.6
2015-Feb-15 12:34N 34°05' E 134°57'1111.3
2015-Feb-15 11:33N 34°16' E 134°58'1413.7
2015-Feb-15 10:33N 34°27' E 135°08'1312.7
2015-Feb-15 09:32N 34°34' E 135°21'0 0.1
2015-Feb-15 08:26N 34°34' E 135°21'0 0.0
2015-Feb-15 07:26N 34°34' E 135°21'0 0.1
2015-Feb-15 06:32N 34°34' E 135°21'0 0.1
2015-Feb-15 04:32N 34°34' E 135°21'0 0.0
2015-Feb-15 03:26N 34°34' E 135°21'0 0.0
2015-Feb-15 02:32N 34°34' E 135°21'0 0.1
2015-Feb-15 01:32N 34°34' E 135°21'1 1.4
2015-Feb-15 00:33N 34°33' E 135°23'2 1.0
2015-Feb-14 22:16N 34°33' E 135°25'0 0.0
2015-Feb-14 21:22N 34°33' E 135°25'0 0.0
2015-Feb-14 20:22N 34°33' E 135°25'0 0.0
2015-Feb-14 03:30N 34°33' E 135°25'4 4.1
2015-Feb-14 02:34N 34°33' E 135°21'2 1.6
2015-Feb-14 01:30N 34°34' E 135°19'0 0.0
2015-Feb-14 00:29N 34°34' E 135°19'0 0.1
2015-Feb-13 23:23N 34°34' E 135°19'0 0.0
2015-Feb-13 22:23N 34°34' E 135°19'0 0.0
2015-Feb-13 21:29N 34°34' E 135°19'0 0.0
2015-Feb-13 20:29N 34°34' E 135°19'0 0.0
2015-Feb-13 19:29N 34°34' E 135°19'0 0.0
2015-Feb-13 18:29N 34°34' E 135°19'0 0.0
2015-Feb-13 17:29N 34°34' E 135°19'0 0.0
2015-Feb-13 16:29N 34°34' E 135°19'0 0.0
2015-Feb-13 15:29N 34°34' E 135°19'0 0.0
2015-Feb-13 14:29N 34°34' E 135°19'0 0.0
2015-Feb-13 13:29N 34°34' E 135°19'0 0.0
2015-Feb-13 12:29N 34°34' E 135°19'0 0.0
2015-Feb-13 11:23N 34°34' E 135°19'0 0.0
2015-Feb-13 10:17N 34°34' E 135°19'0 0.1
2015-Feb-13 09:23N 34°34' E 135°18'0 0.1
2015-Feb-13 08:17N 34°34' E 135°19'0 0.0
2015-Feb-13 07:29N 34°34' E 135°19'0 0.0
2015-Feb-13 06:29N 34°34' E 135°19'0 0.1
2015-Feb-13 05:29N 34°34' E 135°18'0 0.1
2015-Feb-13 04:29N 34°34' E 135°19'0 0.0
2015-Feb-13 03:29N 34°34' E 135°19'0 0.1
2015-Feb-13 02:29N 34°34' E 135°18'0 0.0
2015-Feb-13 01:29N 34°34' E 135°18'0 0.0
2015-Feb-13 00:23N 34°34' E 135°18'0 0.0
2015-Feb-12 23:29N 34°34' E 135°18'0 0.0
2015-Feb-12 22:29N 34°34' E 135°18'0 0.0
2015-Feb-12 21:23N 34°34' E 135°18'0 0.0
2015-Feb-12 20:29N 34°34' E 135°18'0 0.0
2015-Feb-12 19:29N 34°34' E 135°18'0 0.0
2015-Feb-12 18:29N 34°34' E 135°18'0 0.0
2015-Feb-12 17:29N 34°34' E 135°18'0 0.0
2015-Feb-12 16:29N 34°34' E 135°18'0 0.0
2015-Feb-12 15:23N 34°34' E 135°18'0 0.0
2015-Feb-12 14:29N 34°34' E 135°18'0 0.1
2015-Feb-12 13:23N 34°34' E 135°18'0 0.1
2015-Feb-12 12:29N 34°34' E 135°18'0 0.0
2015-Feb-12 11:29N 34°34' E 135°18'0 0.1
2015-Feb-12 10:23N 34°34' E 135°18'0 0.0
2015-Feb-12 09:29N 34°34' E 135°18'0 0.1
2015-Feb-12 08:29N 34°34' E 135°18'0 0.1
2015-Feb-12 07:29N 34°34' E 135°18'0 0.0
2015-Feb-12 06:17N 34°34' E 135°18'0 0.1
2015-Feb-12 05:29N 34°34' E 135°18'0 0.0
2015-Feb-12 04:17N 34°34' E 135°18'0 0.0
2015-Feb-12 03:29N 34°34' E 135°18'0 0.0
2015-Feb-12 02:29N 34°34' E 135°18'0 0.1
2015-Feb-12 01:29N 34°34' E 135°18'0 0.0
2015-Feb-12 00:23N 34°34' E 135°18'0 0.1
2015-Feb-11 23:29N 34°34' E 135°18'0 0.2
2015-Feb-11 22:33N 34°34' E 135°18'8 7.5
2015-Feb-11 21:33N 34°29' E 135°11'1513.1
2015-Feb-11 20:27N 34°18' E 134°59'1011.1
2015-Feb-11 19:33N 34°09' E 134°59'1010.0
2015-Feb-11 18:33N 33°59' E 134°57'  
Track history (hours):
 
Tides and Currents Weather Stations Pressure Air Temp Water Temp Dewpoint Dewpoint Depression Visibility Wind Speed Wind Dir Waves Ship Positions

Iris Victoria

Last reported at 2015-Feb-15 13:21 UTC. Time now 2015-Feb-28 20:48 UTC.
Position N 33°53' E 134°58'.
Warning: this ship's position is 13 days out of date.

Length 228 m; draft 7.9 m.

Type: Ship (hazmat cat C). MMSI: 538003876.

Date/timePositionNaut miles runAvg speedWind from/ knotsBaromVisibWave heightAir tempDewpointWater temp
2015-Feb-15 13:21N 33°53' E 134°58'1214.6
2015-Feb-15 12:34N 34°05' E 134°57'1111.3
2015-Feb-15 11:33N 34°16' E 134°58'1413.7
2015-Feb-15 10:33N 34°27' E 135°08'1312.7
2015-Feb-15 09:32N 34°34' E 135°21'0 0.1
2015-Feb-15 08:26N 34°34' E 135°21'0 0.0
2015-Feb-15 07:26N 34°34' E 135°21'0 0.1
2015-Feb-15 06:32N 34°34' E 135°21'0 0.1
2015-Feb-15 04:32N 34°34' E 135°21'0 0.0
2015-Feb-15 03:26N 34°34' E 135°21'0 0.0
2015-Feb-15 02:32N 34°34' E 135°21'0 0.1
2015-Feb-15 01:32N 34°34' E 135°21'1 1.4
2015-Feb-15 00:33N 34°33' E 135°23'2 1.0
2015-Feb-14 22:16N 34°33' E 135°25'0 0.0
2015-Feb-14 21:22N 34°33' E 135°25'0 0.0
2015-Feb-14 20:22N 34°33' E 135°25'0 0.0
2015-Feb-14 03:30N 34°33' E 135°25'4 4.1
2015-Feb-14 02:34N 34°33' E 135°21'2 1.6
2015-Feb-14 01:30N 34°34' E 135°19'0 0.0
2015-Feb-14 00:29N 34°34' E 135°19'0 0.1
2015-Feb-13 23:23N 34°34' E 135°19'0 0.0
2015-Feb-13 22:23N 34°34' E 135°19'0 0.0
2015-Feb-13 21:29N 34°34' E 135°19'0 0.0
2015-Feb-13 20:29N 34°34' E 135°19'0 0.0
2015-Feb-13 19:29N 34°34' E 135°19'0 0.0
2015-Feb-13 18:29N 34°34' E 135°19'0 0.0
2015-Feb-13 17:29N 34°34' E 135°19'0 0.0
2015-Feb-13 16:29N 34°34' E 135°19'0 0.0
2015-Feb-13 15:29N 34°34' E 135°19'0 0.0
2015-Feb-13 14:29N 34°34' E 135°19'0 0.0
2015-Feb-13 13:29N 34°34' E 135°19'0 0.0
2015-Feb-13 12:29N 34°34' E 135°19'0 0.0
2015-Feb-13 11:23N 34°34' E 135°19'0 0.0
2015-Feb-13 10:17N 34°34' E 135°19'0 0.1
2015-Feb-13 09:23N 34°34' E 135°18'0 0.1
2015-Feb-13 08:17N 34°34' E 135°19'0 0.0
2015-Feb-13 07:29N 34°34' E 135°19'0 0.0
2015-Feb-13 06:29N 34°34' E 135°19'0 0.1
2015-Feb-13 05:29N 34°34' E 135°18'0 0.1
2015-Feb-13 04:29N 34°34' E 135°19'0 0.0
2015-Feb-13 03:29N 34°34' E 135°19'0 0.1
2015-Feb-13 02:29N 34°34' E 135°18'0 0.0
2015-Feb-13 01:29N 34°34' E 135°18'0 0.0
2015-Feb-13 00:23N 34°34' E 135°18'0 0.0
2015-Feb-12 23:29N 34°34' E 135°18'0 0.0
2015-Feb-12 22:29N 34°34' E 135°18'0 0.0
2015-Feb-12 21:23N 34°34' E 135°18'0 0.0
2015-Feb-12 20:29N 34°34' E 135°18'0 0.0
2015-Feb-12 19:29N 34°34' E 135°18'0 0.0
2015-Feb-12 18:29N 34°34' E 135°18'0 0.0
2015-Feb-12 17:29N 34°34' E 135°18'0 0.0
2015-Feb-12 16:29N 34°34' E 135°18'0 0.0
2015-Feb-12 15:23N 34°34' E 135°18'0 0.0
2015-Feb-12 14:29N 34°34' E 135°18'0 0.1
2015-Feb-12 13:23N 34°34' E 135°18'0 0.1
2015-Feb-12 12:29N 34°34' E 135°18'0 0.0
2015-Feb-12 11:29N 34°34' E 135°18'0 0.1
2015-Feb-12 10:23N 34°34' E 135°18'0 0.0
2015-Feb-12 09:29N 34°34' E 135°18'0 0.1
2015-Feb-12 08:29N 34°34' E 135°18'0 0.1
2015-Feb-12 07:29N 34°34' E 135°18'0 0.0
2015-Feb-12 06:17N 34°34' E 135°18'0 0.1
2015-Feb-12 05:29N 34°34' E 135°18'0 0.0
2015-Feb-12 04:17N 34°34' E 135°18'0 0.0
2015-Feb-12 03:29N 34°34' E 135°18'0 0.0
2015-Feb-12 02:29N 34°34' E 135°18'0 0.1
2015-Feb-12 01:29N 34°34' E 135°18'0 0.0
2015-Feb-12 00:23N 34°34' E 135°18'0 0.1
2015-Feb-11 23:29N 34°34' E 135°18'0 0.2
2015-Feb-11 22:33N 34°34' E 135°18'8 7.5
2015-Feb-11 21:33N 34°29' E 135°11'1513.1
2015-Feb-11 20:27N 34°18' E 134°59'1011.1
2015-Feb-11 19:33N 34°09' E 134°59'1010.0
2015-Feb-11 18:33N 33°59' E 134°57'  

Dump ship's entire track history